createdAt,value
2019-03-22T00:00:58.387Z,0
2019-03-22T00:02:08.375Z,0
2019-03-22T00:03:18.291Z,0
2019-03-22T00:04:28.212Z,0
2019-03-22T00:05:38.137Z,0
2019-03-22T00:06:48.051Z,0
2019-03-22T00:07:57.975Z,0
2019-03-22T00:09:07.899Z,0
2019-03-22T00:10:17.819Z,0
2019-03-22T00:11:27.738Z,0
2019-03-22T00:12:37.662Z,0
2019-03-22T00:13:47.343Z,0
2019-03-22T00:14:57.329Z,0
2019-03-22T00:16:07.253Z,0
2019-03-22T00:17:17.164Z,0
2019-03-22T00:18:27.079Z,0
2019-03-22T00:19:36.995Z,0
2019-03-22T00:20:46.920Z,0
2019-03-22T00:21:56.833Z,0
2019-03-22T00:23:06.752Z,0
2019-03-22T00:24:16.680Z,0
2019-03-22T00:25:26.601Z,0
2019-03-22T00:26:37.448Z,0
2019-03-22T00:27:47.364Z,0
2019-03-22T00:28:57.288Z,0
2019-03-22T00:30:07.260Z,0
2019-03-22T00:31:17.176Z,0
2019-03-22T00:32:27.150Z,0
2019-03-22T00:33:37.070Z,0
2019-03-22T00:34:46.989Z,0
2019-03-22T00:35:57.004Z,0
2019-03-22T00:37:06.943Z,0
2019-03-22T00:38:16.866Z,0
2019-03-22T00:39:26.779Z,0
2019-03-22T00:40:36.772Z,0
2019-03-22T00:41:46.686Z,0
2019-03-22T00:42:56.670Z,0
2019-03-22T00:44:06.585Z,0
2019-03-22T00:45:16.509Z,0
2019-03-22T00:46:26.429Z,0
2019-03-22T00:47:36.205Z,0
2019-03-22T00:48:46.121Z,0
2019-03-22T00:49:56.033Z,0
2019-03-22T00:51:05.956Z,0
2019-03-22T00:52:15.876Z,0
2019-03-22T00:53:25.794Z,0
2019-03-22T00:54:35.712Z,0
2019-03-22T00:55:45.633Z,0
2019-03-22T00:56:55.545Z,0
2019-03-22T00:58:05.476Z,0
2019-03-22T00:59:15.443Z,0
2019-03-22T01:00:25.372Z,0
2019-03-22T01:01:35.309Z,0
2019-03-22T01:02:45.233Z,0
2019-03-22T01:03:54.897Z,0
2019-03-22T01:05:04.827Z,0
2019-03-22T01:06:14.746Z,0
2019-03-22T01:07:24.681Z,0
2019-03-22T01:08:34.644Z,0
2019-03-22T01:09:44.564Z,0
2019-03-22T01:10:54.602Z,0
2019-03-22T01:12:04.537Z,0
2019-03-22T01:13:14.453Z,0
2019-03-22T01:14:24.369Z,0
2019-03-22T01:15:34.290Z,0
2019-03-22T01:16:44.406Z,0
2019-03-22T01:17:54.318Z,0
2019-03-22T01:19:04.234Z,0
2019-03-22T01:20:14.156Z,0
2019-03-22T01:21:24.108Z,0
2019-03-22T01:22:34.287Z,0
2019-03-22T01:23:43.952Z,0
2019-03-22T01:24:53.879Z,0
2019-03-22T01:26:03.793Z,0
2019-03-22T01:27:13.709Z,0
2019-03-22T01:28:23.485Z,0
2019-03-22T01:29:33.406Z,0
2019-03-22T01:30:43.333Z,0
2019-03-22T01:31:53.251Z,0
2019-03-22T01:33:03.184Z,0
2019-03-22T01:34:13.157Z,0
2019-03-22T01:35:23.071Z,0
2019-03-22T01:36:32.985Z,0
2019-03-22T01:37:42.907Z,0
2019-03-22T01:38:52.855Z,0
2019-03-22T01:40:02.877Z,0
2019-03-22T01:41:12.823Z,0
2019-03-22T01:42:22.739Z,0
2019-03-22T01:43:32.652Z,0
2019-03-22T01:44:42.568Z,0
2019-03-22T01:45:52.590Z,0
2019-03-22T01:47:02.261Z,0
2019-03-22T01:48:12.179Z,0
2019-03-22T01:49:22.093Z,0
2019-03-22T01:50:32.012Z,0
2019-03-22T01:51:42.030Z,0
2019-03-22T01:52:51.945Z,0
2019-03-22T01:54:01.863Z,0
2019-03-22T01:55:11.783Z,0
2019-03-22T01:56:21.707Z,0
2019-03-22T01:57:31.625Z,0
2019-03-22T01:58:41.549Z,0
2019-03-22T01:59:51.217Z,0
2019-03-22T02:01:01.162Z,0
2019-03-22T02:02:11.087Z,0
2019-03-22T02:03:21.003Z,0
2019-03-22T02:04:30.929Z,0
2019-03-22T02:05:40.844Z,0
2019-03-22T02:06:50.817Z,0
2019-03-22T02:08:00.761Z,0
2019-03-22T02:09:10.432Z,0
2019-03-22T02:10:20.358Z,0
2019-03-22T02:11:30.288Z,0
2019-03-22T02:12:40.220Z,0
2019-03-22T02:13:50.147Z,0
2019-03-22T02:15:00.365Z,0
2019-03-22T02:16:10.301Z,0
2019-03-22T02:17:20.227Z,0
2019-03-22T02:18:30.147Z,0
2019-03-22T02:19:40.066Z,0
2019-03-22T02:20:49.835Z,0
2019-03-22T02:21:59.763Z,0
2019-03-22T02:23:09.434Z,0
2019-03-22T02:24:19.363Z,0
2019-03-22T02:25:29.285Z,0
2019-03-22T02:26:39.351Z,0
2019-03-22T02:27:49.026Z,0
2019-03-22T02:28:58.951Z,0
2019-03-22T02:30:08.646Z,0
2019-03-22T02:31:18.581Z,0
2019-03-22T02:32:28.500Z,0
2019-03-22T02:33:38.434Z,0
2019-03-22T02:34:48.441Z,0
2019-03-22T02:35:58.361Z,0
2019-03-22T02:37:08.298Z,0
2019-03-22T02:38:18.233Z,0
2019-03-22T02:39:28.594Z,0
2019-03-22T02:40:38.872Z,0
2019-03-22T02:41:48.880Z,0
2019-03-22T02:42:58.821Z,0
2019-03-22T02:44:08.874Z,0
2019-03-22T02:45:18.907Z,0
2019-03-22T02:46:28.845Z,0
2019-03-22T02:47:38.799Z,0
2019-03-22T02:48:48.771Z,0
2019-03-22T02:49:58.845Z,0
2019-03-22T02:51:24.389Z,0
2019-03-22T02:52:34.319Z,0
2019-03-22T02:53:44.259Z,0
2019-03-22T02:54:54.299Z,0
2019-03-22T02:56:04.767Z,0
2019-03-22T02:57:14.912Z,0
2019-03-22T02:58:28.364Z,0
2019-03-22T02:59:38.051Z,0
2019-03-22T03:00:47.986Z,0
2019-03-22T03:01:57.960Z,0
2019-03-22T03:03:07.919Z,0
2019-03-22T03:04:17.860Z,0
2019-03-22T03:05:27.812Z,0
2019-03-22T03:06:37.744Z,0
2019-03-22T03:07:47.707Z,0
2019-03-22T03:08:57.650Z,0
2019-03-22T03:10:07.608Z,0
2019-03-22T03:11:17.531Z,0
2019-03-22T03:12:27.502Z,0
2019-03-22T03:13:37.452Z,0
2019-03-22T03:14:47.376Z,0
2019-03-22T03:15:57.312Z,0
2019-03-22T03:17:07.246Z,0
2019-03-22T03:18:17.284Z,0
2019-03-22T03:19:27.205Z,0
2019-03-22T03:20:37.187Z,0
2019-03-22T03:21:47.129Z,0
2019-03-22T03:22:56.834Z,0
2019-03-22T03:24:06.904Z,0
2019-03-22T03:25:16.854Z,0
2019-03-22T03:26:26.787Z,0
2019-03-22T03:27:36.720Z,0
2019-03-22T03:28:46.638Z,0
2019-03-22T03:29:56.573Z,0
2019-03-22T03:31:06.653Z,0
2019-03-22T03:32:16.626Z,0
2019-03-22T03:33:26.639Z,0
2019-03-22T03:34:36.711Z,0
2019-03-22T03:35:47.437Z,0
2019-03-22T03:36:57.379Z,0
2019-03-22T03:38:07.320Z,0
2019-03-22T03:39:17.284Z,0
2019-03-22T03:40:27.021Z,0
2019-03-22T03:41:36.959Z,0
2019-03-22T03:42:46.905Z,0
2019-03-22T03:43:56.909Z,0
2019-03-22T03:45:06.951Z,0
2019-03-22T03:46:16.892Z,0
2019-03-22T03:47:26.817Z,0
2019-03-22T03:48:36.873Z,0
2019-03-22T03:49:46.908Z,0
2019-03-22T03:50:56.845Z,0
2019-03-22T03:52:06.773Z,0
2019-03-22T03:53:16.815Z,0
2019-03-22T03:54:26.781Z,0
2019-03-22T03:55:36.741Z,0
2019-03-22T03:56:46.456Z,0
2019-03-22T03:57:56.401Z,0
2019-03-22T03:59:06.485Z,0
2019-03-22T04:00:16.465Z,0
2019-03-22T04:01:26.142Z,0
2019-03-22T04:02:36.066Z,0
2019-03-22T04:03:46.030Z,0
2019-03-22T04:04:56.100Z,0
2019-03-22T04:06:06.049Z,0
2019-03-22T04:07:15.984Z,0
2019-03-22T04:08:25.918Z,0
2019-03-22T04:09:35.894Z,0
2019-03-22T04:10:45.676Z,0
2019-03-22T04:11:55.639Z,0
2019-03-22T04:13:05.600Z,0
2019-03-22T04:14:15.542Z,0
2019-03-22T04:15:25.467Z,0
2019-03-22T04:16:35.418Z,0
2019-03-22T04:17:45.376Z,0
2019-03-22T04:18:55.318Z,0
2019-03-22T04:20:05.316Z,0
2019-03-22T04:21:15.252Z,0
2019-03-22T04:22:25.276Z,0
2019-03-22T04:23:35.222Z,0
2019-03-22T04:24:44.910Z,0
2019-03-22T04:25:54.845Z,0
2019-03-22T04:27:04.771Z,0
2019-03-22T04:28:14.793Z,0
2019-03-22T04:29:24.739Z,0
2019-03-22T04:30:34.726Z,4
2019-03-22T04:31:44.668Z,4
2019-03-22T04:32:54.350Z,0
2019-03-22T04:34:04.140Z,0
2019-03-22T04:35:14.105Z,4
2019-03-22T04:36:23.803Z,0
2019-03-22T04:37:33.770Z,4
2019-03-22T04:38:43.452Z,4
2019-03-22T04:39:53.480Z,4
2019-03-22T04:41:03.401Z,4
2019-03-22T04:42:13.336Z,8
2019-03-22T04:43:23.269Z,8
2019-03-22T04:44:33.191Z,8
2019-03-22T04:45:43.207Z,8
2019-03-22T04:46:53.125Z,12
2019-03-22T04:48:03.038Z,16
2019-03-22T04:49:12.958Z,16
2019-03-22T04:50:22.872Z,20
2019-03-22T04:51:32.798Z,20
2019-03-22T04:52:42.715Z,28
2019-03-22T04:53:52.633Z,32
2019-03-22T04:55:02.772Z,32
2019-03-22T04:56:12.688Z,40
2019-03-22T04:57:22.600Z,44
2019-03-22T04:58:32.527Z,48
2019-03-22T04:59:42.441Z,60
2019-03-22T05:00:52.434Z,68
2019-03-22T05:02:02.378Z,80
2019-03-22T05:03:12.421Z,92
2019-03-22T05:04:22.381Z,104
2019-03-22T05:05:32.304Z,116
2019-03-22T05:06:42.220Z,128
2019-03-22T05:07:52.138Z,144
2019-03-22T05:09:02.055Z,156
2019-03-22T05:10:11.741Z,172
2019-03-22T05:11:21.727Z,192
2019-03-22T05:12:31.647Z,208
2019-03-22T05:13:41.564Z,224
2019-03-22T05:14:51.504Z,240
2019-03-22T05:16:01.427Z,260
2019-03-22T05:17:11.349Z,284
2019-03-22T05:18:21.296Z,316
2019-03-22T05:19:31.223Z,352
2019-03-22T05:20:41.185Z,392
2019-03-22T05:21:50.861Z,432
2019-03-22T05:23:00.783Z,468
2019-03-22T05:24:10.702Z,508
2019-03-22T05:25:20.627Z,544
2019-03-22T05:26:30.542Z,560
2019-03-22T05:27:40.458Z,596
2019-03-22T05:28:50.391Z,644
2019-03-22T05:30:00.438Z,688
2019-03-22T05:31:10.393Z,724
2019-03-22T05:32:20.318Z,756
2019-03-22T05:33:29.988Z,792
2019-03-22T05:34:39.907Z,828
2019-03-22T05:35:49.822Z,860
2019-03-22T05:36:59.739Z,900
2019-03-22T05:38:09.759Z,936
2019-03-22T05:39:19.674Z,972
2019-03-22T05:40:29.586Z,996
2019-03-22T05:41:39.503Z,992
2019-03-22T05:42:49.439Z,992
2019-03-22T05:43:59.458Z,1012
2019-03-22T05:45:09.405Z,1036
2019-03-22T05:46:19.326Z,1044
2019-03-22T05:47:29.243Z,1080
2019-03-22T05:48:39.166Z,1132
2019-03-22T05:49:49.199Z,1168
2019-03-22T05:50:59.121Z,1216
2019-03-22T05:52:09.041Z,1256
2019-03-22T05:53:18.956Z,1284
2019-03-22T05:54:28.880Z,1308
2019-03-22T05:55:38.848Z,1344
2019-03-22T05:56:48.763Z,1364
2019-03-22T05:57:58.684Z,1372
2019-03-22T05:59:08.612Z,1364
2019-03-22T06:00:18.536Z,1356
2019-03-22T06:01:28.559Z,1352
2019-03-22T06:02:38.487Z,1348
2019-03-22T06:03:48.405Z,1352
2019-03-22T06:04:58.319Z,1356
2019-03-22T06:06:08.248Z,1372
2019-03-22T06:07:18.165Z,1400
2019-03-22T06:08:28.086Z,1444
2019-03-22T06:09:38.010Z,1508
2019-03-22T06:10:47.925Z,1608
2019-03-22T06:11:57.841Z,1732
2019-03-22T06:13:07.873Z,1872
2019-03-22T06:14:17.793Z,2024
2019-03-22T06:15:27.716Z,2184
2019-03-22T06:16:37.634Z,2316
2019-03-22T06:17:58.437Z,2404
2019-03-22T06:19:08.464Z,2424
2019-03-22T06:20:18.383Z,2420
2019-03-22T06:21:28.301Z,2440
2019-03-22T06:22:38.229Z,2476
2019-03-22T06:23:48.248Z,2500
2019-03-22T06:24:58.170Z,2532
2019-03-22T06:26:07.863Z,2568
2019-03-22T06:27:17.787Z,2608
2019-03-22T06:28:27.453Z,2648
2019-03-22T06:29:37.426Z,2668
2019-03-22T06:30:47.347Z,2684
2019-03-22T06:31:57.035Z,2760
2019-03-22T06:33:06.959Z,2964
2019-03-22T06:34:16.876Z,3296
2019-03-22T06:35:26.900Z,3676
2019-03-22T06:36:36.822Z,4028
2019-03-22T06:37:46.749Z,4336
2019-03-22T06:38:56.674Z,4540
2019-03-22T06:40:06.597Z,4672
2019-03-22T06:41:16.613Z,4732
2019-03-22T06:42:26.537Z,4676
2019-03-22T06:43:36.468Z,4572
2019-03-22T06:44:46.406Z,4428
2019-03-22T06:45:56.345Z,4292
2019-03-22T06:47:06.372Z,4240
2019-03-22T06:48:18.710Z,4240
2019-03-22T06:49:28.643Z,4212
2019-03-22T06:50:38.568Z,4092
2019-03-22T06:51:48.497Z,3936
2019-03-22T06:52:59.390Z,3852
2019-03-22T06:54:09.323Z,3888
2019-03-22T06:55:19.250Z,4028
2019-03-22T06:56:29.207Z,4232
2019-03-22T06:57:39.128Z,4492
2019-03-22T06:58:49.070Z,4736
2019-03-22T07:00:10.588Z,4940
2019-03-22T07:01:20.509Z,5024
2019-03-22T07:02:30.431Z,4996
2019-03-22T07:03:40.347Z,4956
2019-03-22T07:04:50.324Z,4980
2019-03-22T07:06:00.000Z,5096
2019-03-22T07:07:09.926Z,5264
2019-03-22T07:08:19.611Z,5440
2019-03-22T07:09:29.532Z,5604
2019-03-22T07:10:39.200Z,5728
2019-03-22T07:11:49.272Z,5836
2019-03-22T07:12:58.943Z,5956
2019-03-22T07:14:08.876Z,6080
2019-03-22T07:15:18.807Z,6236
2019-03-22T07:16:28.829Z,6436
2019-03-22T07:17:38.764Z,6668
2019-03-22T07:18:48.684Z,6936
2019-03-22T07:19:58.361Z,7276
2019-03-22T07:21:08.289Z,7672
2019-03-22T07:22:18.264Z,7996
2019-03-22T07:23:28.199Z,8232
2019-03-22T07:24:38.122Z,8308
2019-03-22T07:25:48.049Z,8260
2019-03-22T07:26:57.989Z,8100
2019-03-22T07:28:07.917Z,7908
2019-03-22T07:29:17.845Z,7796
2019-03-22T07:30:27.769Z,7828
2019-03-22T07:31:38.371Z,7872
2019-03-22T07:32:48.312Z,7896
2019-03-22T07:33:58.241Z,7936
2019-03-22T07:35:08.170Z,8020
2019-03-22T07:36:18.093Z,8116
2019-03-22T07:37:28.015Z,8236
2019-03-22T07:38:37.937Z,8336
2019-03-22T07:39:47.919Z,8448
2019-03-22T07:40:57.969Z,8560
2019-03-22T07:42:07.920Z,8704
2019-03-22T07:43:17.848Z,8864
2019-03-22T07:44:27.776Z,9036
2019-03-22T07:45:37.804Z,9236
2019-03-22T07:46:47.735Z,9428
2019-03-22T07:47:58.412Z,9560
2019-03-22T07:49:08.086Z,9728
2019-03-22T07:50:17.759Z,9928
2019-03-22T07:51:27.783Z,10144
2019-03-22T07:52:37.706Z,10452
2019-03-22T07:53:47.629Z,10740
2019-03-22T07:54:57.549Z,10888
2019-03-22T07:56:07.473Z,11040
2019-03-22T07:57:17.447Z,11240
2019-03-22T07:58:27.369Z,11400
2019-03-22T07:59:37.333Z,11524
2019-03-22T08:00:47.265Z,11660
2019-03-22T08:01:57.207Z,11916
2019-03-22T08:03:07.134Z,12172
2019-03-22T08:04:17.134Z,12180
2019-03-22T08:05:27.061Z,12088
2019-03-22T08:06:36.985Z,12052
2019-03-22T08:07:46.904Z,12152
2019-03-22T08:08:56.585Z,12156
2019-03-22T08:10:06.766Z,11872
2019-03-22T08:11:16.756Z,11412
2019-03-22T08:12:26.857Z,11048
2019-03-22T08:13:36.859Z,10824
2019-03-22T08:14:46.894Z,10656
2019-03-22T08:15:57.651Z,10572
2019-03-22T08:17:07.664Z,10476
2019-03-22T08:18:17.612Z,10432
2019-03-22T08:19:27.644Z,10396
2019-03-22T08:20:38.723Z,10372
2019-03-22T08:21:48.876Z,10356
2019-03-22T08:22:58.846Z,10324
2019-03-22T08:24:08.840Z,10272
2019-03-22T08:25:18.814Z,10260
2019-03-22T08:26:28.769Z,10208
2019-03-22T08:27:38.724Z,10164
2019-03-22T08:28:48.408Z,10204
2019-03-22T08:29:58.393Z,10228
2019-03-22T08:31:10.445Z,10224
2019-03-22T08:32:20.252Z,10112
2019-03-22T08:33:29.968Z,10012
2019-03-22T08:34:40.003Z,10040
2019-03-22T08:35:49.973Z,10124
2019-03-22T08:36:59.923Z,10236
2019-03-22T08:38:09.945Z,10372
2019-03-22T08:39:19.996Z,10392
2019-03-22T08:40:30.018Z,10408
2019-03-22T08:41:40.033Z,10416
2019-03-22T08:42:49.963Z,10240
2019-03-22T08:44:02.672Z,10168
2019-03-22T08:45:16.004Z,10548
2019-03-22T08:46:26.048Z,11144
2019-03-22T08:47:41.700Z,11780
2019-03-22T08:48:51.703Z,12216
2019-03-22T08:50:01.856Z,12488
2019-03-22T08:51:11.858Z,12712
2019-03-22T08:52:21.844Z,12836
2019-03-22T08:53:31.817Z,12864
2019-03-22T08:54:43.286Z,12756
2019-03-22T08:55:53.329Z,12928
2019-03-22T08:57:03.365Z,12896
2019-03-22T08:58:13.361Z,12888
2019-03-22T08:59:26.375Z,12916
2019-03-22T09:00:58.992Z,12904
2019-03-22T09:02:10.766Z,12912
2019-03-22T09:03:20.771Z,12928
2019-03-22T09:04:30.768Z,12968
2019-03-22T09:05:40.837Z,13048
2019-03-22T09:06:50.816Z,13216
2019-03-22T09:08:00.771Z,13456
2019-03-22T09:09:10.489Z,13684
2019-03-22T09:10:20.319Z,13940
2019-03-22T09:11:30.333Z,14200
2019-03-22T09:12:40.272Z,14396
2019-03-22T09:13:50.332Z,14600
2019-03-22T09:15:01.692Z,14712
2019-03-22T09:16:11.743Z,14720
2019-03-22T09:17:22.093Z,14800
2019-03-22T09:18:32.161Z,14900
2019-03-22T09:19:42.189Z,14980
2019-03-22T09:20:52.251Z,15080
2019-03-22T09:22:04.533Z,15140
2019-03-22T09:23:14.487Z,15188
2019-03-22T09:24:38.467Z,15276
2019-03-22T09:25:49.000Z,15428
2019-03-22T09:26:59.062Z,15556
2019-03-22T09:28:10.338Z,15652
2019-03-22T09:29:20.483Z,15704
2019-03-22T09:30:30.551Z,15728
2019-03-22T09:31:40.571Z,15724
2019-03-22T09:32:50.561Z,15584
2019-03-22T09:34:00.530Z,15532
2019-03-22T09:35:10.586Z,15660
2019-03-22T09:36:20.809Z,15700
2019-03-22T09:37:30.843Z,15588
2019-03-22T09:38:40.991Z,15388
2019-03-22T09:39:51.018Z,15276
2019-03-22T09:41:01.028Z,15284
2019-03-22T09:42:11.100Z,15348
2019-03-22T09:43:21.116Z,15244
2019-03-22T09:44:45.857Z,14896
2019-03-22T09:45:55.881Z,14656
2019-03-22T09:47:05.925Z,14504
2019-03-22T09:48:15.951Z,14464
2019-03-22T09:49:25.984Z,14600
2019-03-22T09:50:36.130Z,14964
2019-03-22T09:51:46.122Z,15512
2019-03-22T09:52:56.209Z,16164
2019-03-22T09:54:05.971Z,16712
2019-03-22T09:55:21.090Z,17376
2019-03-22T09:56:31.136Z,17920
2019-03-22T09:57:56.592Z,18624
2019-03-22T09:59:06.680Z,18368
2019-03-22T10:00:16.713Z,18272
2019-03-22T10:01:31.388Z,18112
2019-03-22T10:02:41.504Z,18144
2019-03-22T10:03:51.563Z,18240
2019-03-22T10:05:01.623Z,18592
2019-03-22T10:06:11.586Z,18656
2019-03-22T10:07:21.343Z,18848
2019-03-22T10:08:31.100Z,19232
2019-03-22T10:09:41.087Z,18784
2019-03-22T10:10:51.141Z,18016
2019-03-22T10:12:01.163Z,17312
2019-03-22T10:13:10.959Z,16864
2019-03-22T10:14:23.756Z,16932
2019-03-22T10:15:33.710Z,17408
2019-03-22T10:16:43.763Z,17824
2019-03-22T10:17:55.341Z,17856
2019-03-22T10:19:05.492Z,17728
2019-03-22T10:20:15.572Z,17568
2019-03-22T10:21:29.938Z,17472
2019-03-22T10:22:40.043Z,17108
2019-03-22T10:23:50.044Z,17004
2019-03-22T10:25:00.065Z,17440
2019-03-22T10:26:10.186Z,17888
2019-03-22T10:27:20.173Z,18144
2019-03-22T10:28:30.283Z,18528
2019-03-22T10:29:40.132Z,18400
2019-03-22T10:30:50.215Z,17952
2019-03-22T10:32:00.291Z,17824
2019-03-22T10:33:22.008Z,17952
2019-03-22T10:34:32.720Z,18080
2019-03-22T10:35:42.745Z,18688
2019-03-22T10:36:52.828Z,18720
2019-03-22T10:38:30.767Z,18976
2019-03-22T10:39:41.710Z,18880
2019-03-22T10:40:51.567Z,18528
2019-03-22T10:42:01.340Z,18144
2019-03-22T10:43:11.393Z,17984
2019-03-22T10:44:21.576Z,18432
2019-03-22T10:45:31.688Z,18912
2019-03-22T10:46:41.964Z,18976
2019-03-22T10:47:51.955Z,18336
2019-03-22T10:49:01.943Z,17984
2019-03-22T10:50:11.938Z,18624
2019-03-22T10:51:24.082Z,19936
2019-03-22T10:52:34.184Z,20608
2019-03-22T10:53:44.226Z,19648
2019-03-22T10:54:54.275Z,19072
2019-03-22T10:56:04.211Z,19040
2019-03-22T10:57:14.144Z,18720
2019-03-22T10:58:28.650Z,18688
2019-03-22T10:59:38.605Z,19360
2019-03-22T11:00:48.540Z,20000
2019-03-22T11:02:12.426Z,20480
2019-03-22T11:03:22.410Z,20608
2019-03-22T11:04:32.357Z,20928
2019-03-22T11:05:42.289Z,21504
2019-03-22T11:06:52.241Z,21696
2019-03-22T11:08:02.169Z,21216
2019-03-22T11:09:12.100Z,20704
2019-03-22T11:10:21.810Z,19296
2019-03-22T11:11:31.739Z,19648
2019-03-22T11:12:41.670Z,20000
2019-03-22T11:13:51.343Z,19840
2019-03-22T11:15:01.272Z,18496
2019-03-22T11:16:11.197Z,17824
2019-03-22T11:17:21.128Z,18048
2019-03-22T11:18:39.819Z,18336
2019-03-22T11:19:49.753Z,17728
2019-03-22T11:21:09.489Z,16656
2019-03-22T11:22:19.431Z,15756
2019-03-22T11:23:29.359Z,15048
2019-03-22T11:24:39.294Z,14552
2019-03-22T11:25:49.224Z,14472
2019-03-22T11:26:59.149Z,14492
2019-03-22T11:28:09.142Z,15044
2019-03-22T11:29:19.671Z,16176
2019-03-22T11:30:29.635Z,16688
2019-03-22T11:31:47.286Z,17068
2019-03-22T11:32:57.223Z,18592
2019-03-22T11:34:07.152Z,18912
2019-03-22T11:35:17.099Z,17632
2019-03-22T11:36:27.097Z,15840
2019-03-22T11:37:37.023Z,14764
2019-03-22T11:38:47.005Z,14144
2019-03-22T11:39:56.935Z,13820
2019-03-22T11:41:06.896Z,13464
2019-03-22T11:42:16.842Z,12960
2019-03-22T11:43:28.083Z,12280
2019-03-22T11:44:38.008Z,11860
2019-03-22T11:45:47.939Z,11288
2019-03-22T11:46:57.893Z,11084
2019-03-22T11:48:07.839Z,11500
2019-03-22T11:49:17.768Z,12020
2019-03-22T11:50:28.964Z,12252
2019-03-22T11:51:40.246Z,11868
2019-03-22T11:52:50.278Z,11284
2019-03-22T11:54:00.211Z,11448
2019-03-22T11:55:10.143Z,11584
2019-03-22T11:56:20.139Z,11800
2019-03-22T11:57:30.077Z,11860
2019-03-22T11:58:40.016Z,12264
2019-03-22T11:59:49.945Z,12528
2019-03-22T12:00:59.873Z,12304
2019-03-22T12:02:09.800Z,11980
2019-03-22T12:03:29.699Z,12000
2019-03-22T12:04:39.400Z,12376
2019-03-22T12:05:49.330Z,13308
2019-03-22T12:06:59.256Z,13248
2019-03-22T12:08:09.185Z,13200
2019-03-22T12:09:19.116Z,13400
2019-03-22T12:10:30.638Z,14096
2019-03-22T12:11:42.128Z,14508
2019-03-22T12:12:52.207Z,14260
2019-03-22T12:14:02.202Z,13896
2019-03-22T12:15:13.051Z,13492
2019-03-22T12:16:22.978Z,13376
2019-03-22T12:17:32.908Z,13876
2019-03-22T12:18:42.846Z,14380
2019-03-22T12:19:52.793Z,15160
2019-03-22T12:21:03.834Z,16000
2019-03-22T12:22:13.767Z,16576
2019-03-22T12:23:23.700Z,16700
2019-03-22T12:24:33.633Z,16632
2019-03-22T12:25:43.657Z,16256
2019-03-22T12:26:53.584Z,15392
2019-03-22T12:28:03.539Z,15308
2019-03-22T12:29:13.471Z,15448
2019-03-22T12:30:23.434Z,15208
2019-03-22T12:31:33.184Z,15200
2019-03-22T12:32:42.863Z,14888
2019-03-22T12:33:52.796Z,14364
2019-03-22T12:35:02.797Z,14244
2019-03-22T12:36:12.730Z,14044
2019-03-22T12:37:22.657Z,13516
2019-03-22T12:38:32.596Z,12948
2019-03-22T12:39:44.299Z,12312
2019-03-22T12:40:54.237Z,12304
2019-03-22T12:42:04.172Z,12232
2019-03-22T12:43:15.284Z,12276
2019-03-22T12:44:25.216Z,12188
2019-03-22T12:45:35.144Z,12084
2019-03-22T12:46:45.074Z,12264
2019-03-22T12:47:56.849Z,12124
2019-03-22T12:49:06.831Z,11212
2019-03-22T12:50:16.766Z,10696
2019-03-22T12:51:26.704Z,10308
2019-03-22T12:52:38.488Z,10244
2019-03-22T12:53:48.412Z,9860
2019-03-22T12:54:58.335Z,9840
2019-03-22T12:56:08.019Z,10100
2019-03-22T12:57:17.942Z,9740
2019-03-22T12:58:27.877Z,9120
2019-03-22T12:59:37.803Z,8604
2019-03-22T13:00:47.732Z,8360
2019-03-22T13:01:57.675Z,8612
2019-03-22T13:03:07.605Z,9504
2019-03-22T13:04:17.533Z,10136
2019-03-22T13:05:27.216Z,9624
2019-03-22T13:06:37.197Z,9016
2019-03-22T13:07:47.128Z,9428
2019-03-22T13:08:57.051Z,9544
2019-03-22T13:10:06.981Z,9360
2019-03-22T13:11:16.948Z,8912
2019-03-22T13:12:26.889Z,8688
2019-03-22T13:13:36.814Z,9628
2019-03-22T13:14:46.744Z,10172
2019-03-22T13:15:56.681Z,9968
2019-03-22T13:17:06.605Z,9604
2019-03-22T13:18:16.531Z,9612
2019-03-22T13:19:26.497Z,9716
2019-03-22T13:20:36.433Z,9880
2019-03-22T13:21:46.386Z,10212
2019-03-22T13:22:56.309Z,9972
2019-03-22T13:24:06.340Z,9300
2019-03-22T13:25:16.260Z,8760
2019-03-22T13:26:26.181Z,8152
2019-03-22T13:27:36.104Z,7600
2019-03-22T13:28:46.027Z,7676
2019-03-22T13:29:55.951Z,8208
2019-03-22T13:31:05.887Z,9024
2019-03-22T13:32:15.556Z,9660
2019-03-22T13:33:25.479Z,9972
2019-03-22T13:34:35.408Z,9836
2019-03-22T13:35:45.336Z,9040
2019-03-22T13:36:55.262Z,8712
2019-03-22T13:38:05.183Z,8732
2019-03-22T13:39:15.110Z,8424
2019-03-22T13:40:25.053Z,8344
2019-03-22T13:41:35.983Z,8336
2019-03-22T13:42:45.910Z,8000
2019-03-22T13:43:55.837Z,7948
2019-03-22T13:45:05.762Z,8180
2019-03-22T13:46:15.691Z,7944
2019-03-22T13:47:25.616Z,7840
2019-03-22T13:48:35.294Z,8068
2019-03-22T13:49:45.341Z,8516
2019-03-22T13:50:55.335Z,8704
2019-03-22T13:52:05.260Z,8804
2019-03-22T13:53:15.192Z,8552
2019-03-22T13:54:25.129Z,8580
2019-03-22T13:55:35.148Z,8952
2019-03-22T13:56:45.164Z,9004
2019-03-22T13:57:55.128Z,8732
2019-03-22T13:59:05.099Z,8564
2019-03-22T14:00:15.021Z,8520
2019-03-22T14:01:25.054Z,8200
2019-03-22T14:02:34.986Z,7796
2019-03-22T14:03:44.728Z,7556
2019-03-22T14:04:54.766Z,7516
2019-03-22T14:06:04.688Z,7548
2019-03-22T14:07:14.614Z,7456
2019-03-22T14:08:24.539Z,7464
2019-03-22T14:09:34.676Z,7440
2019-03-22T14:10:44.607Z,7556
2019-03-22T14:11:54.578Z,7632
2019-03-22T14:13:04.507Z,7640
2019-03-22T14:14:14.433Z,7468
2019-03-22T14:15:24.386Z,7476
2019-03-22T14:16:34.357Z,7384
2019-03-22T14:17:44.281Z,7276
2019-03-22T14:18:53.953Z,7248
2019-03-22T14:20:13.697Z,7196
2019-03-22T14:21:23.626Z,7128
2019-03-22T14:22:33.549Z,7172
2019-03-22T14:23:43.476Z,7248
2019-03-22T14:24:54.070Z,7424
2019-03-22T14:26:03.995Z,7596
2019-03-22T14:27:13.923Z,7856
2019-03-22T14:28:23.946Z,7948
2019-03-22T14:29:33.876Z,8196
2019-03-22T14:30:43.798Z,8372
2019-03-22T14:31:53.730Z,8904
2019-03-22T14:33:12.777Z,9452
2019-03-22T14:34:23.187Z,10132
2019-03-22T14:35:33.424Z,10856
2019-03-22T14:36:43.097Z,11652
2019-03-22T14:37:53.027Z,11572
2019-03-22T14:39:02.948Z,10780
2019-03-22T14:40:18.161Z,9852
2019-03-22T14:41:28.088Z,8976
2019-03-22T14:42:38.016Z,8272
2019-03-22T14:43:47.950Z,7888
2019-03-22T14:44:57.874Z,7720
2019-03-22T14:46:07.911Z,7476
2019-03-22T14:47:20.148Z,7384
2019-03-22T14:48:30.077Z,7428
2019-03-22T14:49:40.040Z,7288
2019-03-22T14:50:49.971Z,7228
2019-03-22T14:51:59.946Z,7548
2019-03-22T14:53:09.887Z,8036
2019-03-22T14:54:19.808Z,8356
2019-03-22T14:55:29.745Z,8284
2019-03-22T14:56:39.684Z,8124
2019-03-22T14:57:57.357Z,8052
2019-03-22T14:59:07.283Z,8260
2019-03-22T15:00:17.217Z,9048
2019-03-22T15:01:27.144Z,9712
2019-03-22T15:02:37.071Z,9636
2019-03-22T15:03:47.003Z,9452
2019-03-22T15:04:56.928Z,9776
2019-03-22T15:06:06.851Z,10620
2019-03-22T15:07:26.702Z,11144
2019-03-22T15:08:36.627Z,11088
2019-03-22T15:09:48.712Z,10804
2019-03-22T15:10:58.693Z,10816
2019-03-22T15:12:08.618Z,11524
2019-03-22T15:13:18.547Z,10692
2019-03-22T15:14:28.469Z,9852
2019-03-22T15:15:38.419Z,9312
2019-03-22T15:16:48.403Z,8836
2019-03-22T15:17:58.322Z,8664
2019-03-22T15:19:08.253Z,8592
2019-03-22T15:20:18.174Z,8428
2019-03-22T15:21:28.112Z,8252
2019-03-22T15:22:38.031Z,8048
2019-03-22T15:23:47.953Z,7800
2019-03-22T15:24:57.875Z,7608
2019-03-22T15:26:07.926Z,7072
2019-03-22T15:27:17.953Z,6704
2019-03-22T15:28:27.875Z,6124
2019-03-22T15:29:37.803Z,5324
2019-03-22T15:30:47.732Z,4984
2019-03-22T15:31:57.671Z,4748
2019-03-22T15:33:07.599Z,4588
2019-03-22T15:34:17.541Z,4424
2019-03-22T15:35:27.224Z,4384
2019-03-22T15:36:37.185Z,4728
2019-03-22T15:37:47.111Z,4756
2019-03-22T15:38:57.872Z,4516
2019-03-22T15:40:08.204Z,4396
2019-03-22T15:41:18.134Z,4124
2019-03-22T15:42:28.071Z,4000
2019-03-22T15:43:37.997Z,4224
2019-03-22T15:44:48.033Z,4412
2019-03-22T15:45:58.022Z,4448
2019-03-22T15:47:07.957Z,4552
2019-03-22T15:48:17.886Z,4580
2019-03-22T15:49:27.815Z,4632
2019-03-22T15:50:37.763Z,4840
2019-03-22T15:51:48.789Z,4904
2019-03-22T15:52:58.874Z,5004
2019-03-22T15:54:08.801Z,5316
2019-03-22T15:55:18.733Z,5780
2019-03-22T15:56:28.658Z,5328
2019-03-22T15:57:38.578Z,4804